sensor_id;sensor_type;location;lat;lon;timestamp;temperature;humidity
11540;DHT22;5826;54.756;9.192;2023-05-07T00:00:33;9.10;99.90
11540;DHT22;5826;54.756;9.192;2023-05-07T00:02:59;9.10;99.90
11540;DHT22;5826;54.756;9.192;2023-05-07T00:05:25;9.10;99.90
11540;DHT22;5826;54.756;9.192;2023-05-07T00:07:51;9.10;99.90
11540;DHT22;5826;54.756;9.192;2023-05-07T00:10:18;9.10;99.90
11540;DHT22;5826;54.756;9.192;2023-05-07T00:12:43;9.10;99.90
11540;DHT22;5826;54.756;9.192;2023-05-07T00:15:09;9.10;99.90
11540;DHT22;5826;54.756;9.192;2023-05-07T00:17:35;9.10;99.90
11540;DHT22;5826;54.756;9.192;2023-05-07T00:20:02;9.50;99.90
11540;DHT22;5826;54.756;9.192;2023-05-07T00:22:28;9.10;99.90
11540;DHT22;5826;54.756;9.192;2023-05-07T00:24:55;9.10;99.90
11540;DHT22;5826;54.756;9.192;2023-05-07T00:27:22;9.10;99.90
11540;DHT22;5826;54.756;9.192;2023-05-07T00:29:47;9.10;99.90
11540;DHT22;5826;54.756;9.192;2023-05-07T00:32:13;9.10;99.90
11540;DHT22;5826;54.756;9.192;2023-05-07T00:34:39;9.10;99.90
11540;DHT22;5826;54.756;9.192;2023-05-07T00:37:05;9.10;99.90
11540;DHT22;5826;54.756;9.192;2023-05-07T00:39:30;9.10;99.90
11540;DHT22;5826;54.756;9.192;2023-05-07T00:41:56;9.10;99.90
11540;DHT22;5826;54.756;9.192;2023-05-07T00:44:22;9.20;99.90
11540;DHT22;5826;54.756;9.192;2023-05-07T00:46:47;9.20;99.90
11540;DHT22;5826;54.756;9.192;2023-05-07T00:49:15;9.20;99.90
11540;DHT22;5826;54.756;9.192;2023-05-07T00:51:41;9.20;99.90
11540;DHT22;5826;54.756;9.192;2023-05-07T00:54:06;9.20;99.90
11540;DHT22;5826;54.756;9.192;2023-05-07T00:56:33;9.20;99.90
11540;DHT22;5826;54.756;9.192;2023-05-07T00:58:58;9.20;99.90
11540;DHT22;5826;54.756;9.192;2023-05-07T01:01:24;9.20;99.90
11540;DHT22;5826;54.756;9.192;2023-05-07T01:03:49;9.20;99.90
11540;DHT22;5826;54.756;9.192;2023-05-07T01:06:15;9.20;99.90
11540;DHT22;5826;54.756;9.192;2023-05-07T01:08:42;9.20;99.90
11540;DHT22;5826;54.756;9.192;2023-05-07T01:11:08;9.20;99.90
11540;DHT22;5826;54.756;9.192;2023-05-07T01:13:35;9.20;99.90
11540;DHT22;5826;54.756;9.192;2023-05-07T01:16:02;9.20;99.90
11540;DHT22;5826;54.756;9.192;2023-05-07T01:18:28;9.20;99.90
11540;DHT22;5826;54.756;9.192;2023-05-07T01:20:57;9.20;99.90
11540;DHT22;5826;54.756;9.192;2023-05-07T01:23:24;9.20;99.90
11540;DHT22;5826;54.756;9.192;2023-05-07T01:25:54;9.20;99.90
11540;DHT22;5826;54.756;9.192;2023-05-07T01:28:20;9.20;99.90
11540;DHT22;5826;54.756;9.192;2023-05-07T01:30:49;9.20;99.90
11540;DHT22;5826;54.756;9.192;2023-05-07T01:33:19;9.30;99.90
11540;DHT22;5826;54.756;9.192;2023-05-07T01:35:48;9.30;99.90
11540;DHT22;5826;54.756;9.192;2023-05-07T01:38:14;9.20;99.90
11540;DHT22;5826;54.756;9.192;2023-05-07T01:40:40;9.20;99.90
11540;DHT22;5826;54.756;9.192;2023-05-07T01:43:06;9.20;99.90
11540;DHT22;5826;54.756;9.192;2023-05-07T01:45:32;9.20;99.90
11540;DHT22;5826;54.756;9.192;2023-05-07T01:47:59;9.20;99.90
11540;DHT22;5826;54.756;9.192;2023-05-07T01:50:25;9.30;99.90
11540;DHT22;5826;54.756;9.192;2023-05-07T01:52:51;9.20;99.90
11540;DHT22;5826;54.756;9.192;2023-05-07T01:55:17;9.30;99.90
11540;DHT22;5826;54.756;9.192;2023-05-07T01:57:42;9.30;99.90
11540;DHT22;5826;54.756;9.192;2023-05-07T02:00:08;9.30;99.90
11540;DHT22;5826;54.756;9.192;2023-05-07T02:02:34;9.30;99.90
11540;DHT22;5826;54.756;9.192;2023-05-07T02:05:00;9.30;99.90
11540;DHT22;5826;54.756;9.192;2023-05-07T02:07:27;9.40;99.90
11540;DHT22;5826;54.756;9.192;2023-05-07T02:09:53;9.30;99.90
11540;DHT22;5826;54.756;9.192;2023-05-07T02:12:20;9.30;99.90
11540;DHT22;5826;54.756;9.192;2023-05-07T02:14:46;9.30;99.90
11540;DHT22;5826;54.756;9.192;2023-05-07T02:17:11;9.30;99.90
11540;DHT22;5826;54.756;9.192;2023-05-07T02:19:37;9.40;99.90
11540;DHT22;5826;54.756;9.192;2023-05-07T02:22:02;9.40;99.90
11540;DHT22;5826;54.756;9.192;2023-05-07T02:24:28;9.40;99.90
11540;DHT22;5826;54.756;9.192;2023-05-07T02:26:53;9.40;99.90
11540;DHT22;5826;54.756;9.192;2023-05-07T02:29:19;9.40;99.90
11540;DHT22;5826;54.756;9.192;2023-05-07T02:31:44;9.40;99.90
11540;DHT22;5826;54.756;9.192;2023-05-07T02:34:10;9.40;99.90
11540;DHT22;5826;54.756;9.192;2023-05-07T02:36:35;9.40;99.90
11540;DHT22;5826;54.756;9.192;2023-05-07T02:39:01;9.40;99.90
11540;DHT22;5826;54.756;9.192;2023-05-07T02:41:27;9.50;99.90
11540;DHT22;5826;54.756;9.192;2023-05-07T02:43:53;9.40;99.90
11540;DHT22;5826;54.756;9.192;2023-05-07T02:46:18;9.40;99.90
11540;DHT22;5826;54.756;9.192;2023-05-07T02:48:44;9.40;99.90
11540;DHT22;5826;54.756;9.192;2023-05-07T02:51:10;9.40;99.90
11540;DHT22;5826;54.756;9.192;2023-05-07T02:53:35;9.40;99.90
11540;DHT22;5826;54.756;9.192;2023-05-07T02:56:01;9.40;99.90
11540;DHT22;5826;54.756;9.192;2023-05-07T02:58:28;9.40;99.90
11540;DHT22;5826;54.756;9.192;2023-05-07T03:00:53;9.40;99.90
11540;DHT22;5826;54.756;9.192;2023-05-07T03:03:22;9.40;99.90
11540;DHT22;5826;54.756;9.192;2023-05-07T03:05:48;9.40;99.90
11540;DHT22;5826;54.756;9.192;2023-05-07T03:08:13;9.40;99.90
11540;DHT22;5826;54.756;9.192;2023-05-07T03:10:39;9.40;99.90
11540;DHT22;5826;54.756;9.192;2023-05-07T03:13:05;9.40;99.90
11540;DHT22;5826;54.756;9.192;2023-05-07T03:15:30;9.40;99.90
11540;DHT22;5826;54.756;9.192;2023-05-07T03:17:56;9.40;99.90
11540;DHT22;5826;54.756;9.192;2023-05-07T03:20:22;9.40;99.90
11540;DHT22;5826;54.756;9.192;2023-05-07T03:22:48;9.40;99.90
11540;DHT22;5826;54.756;9.192;2023-05-07T03:25:13;9.40;99.90
11540;DHT22;5826;54.756;9.192;2023-05-07T03:27:40;9.40;99.90
11540;DHT22;5826;54.756;9.192;2023-05-07T03:30:07;9.40;99.90
11540;DHT22;5826;54.756;9.192;2023-05-07T03:32:34;9.40;99.90
11540;DHT22;5826;54.756;9.192;2023-05-07T03:35:00;9.40;99.90
11540;DHT22;5826;54.756;9.192;2023-05-07T03:37:26;9.40;99.90
11540;DHT22;5826;54.756;9.192;2023-05-07T03:39:51;9.40;99.90
11540;DHT22;5826;54.756;9.192;2023-05-07T03:42:17;9.40;99.90
11540;DHT22;5826;54.756;9.192;2023-05-07T03:44:42;9.40;99.90
11540;DHT22;5826;54.756;9.192;2023-05-07T03:47:08;9.40;99.90
11540;DHT22;5826;54.756;9.192;2023-05-07T03:49:34;9.40;99.90
11540;DHT22;5826;54.756;9.192;2023-05-07T03:51:59;9.40;99.90
11540;DHT22;5826;54.756;9.192;2023-05-07T03:54:25;9.40;99.90
11540;DHT22;5826;54.756;9.192;2023-05-07T03:56:50;9.40;99.90
11540;DHT22;5826;54.756;9.192;2023-05-07T03:59:16;9.40;99.90
11540;DHT22;5826;54.756;9.192;2023-05-07T04:01:41;9.40;99.90
11540;DHT22;5826;54.756;9.192;2023-05-07T04:04:07;9.40;99.90
11540;DHT22;5826;54.756;9.192;2023-05-07T04:06:32;9.40;99.90
11540;DHT22;5826;54.756;9.192;2023-05-07T04:08:58;9.50;99.90
11540;DHT22;5826;54.756;9.192;2023-05-07T04:11:24;9.50;99.90
11540;DHT22;5826;54.756;9.192;2023-05-07T04:13:50;9.50;99.90
11540;DHT22;5826;54.756;9.192;2023-05-07T04:16:15;9.50;99.90
11540;DHT22;5826;54.756;9.192;2023-05-07T04:18:41;9.50;99.90
11540;DHT22;5826;54.756;9.192;2023-05-07T04:21:14;9.50;99.90
11540;DHT22;5826;54.756;9.192;2023-05-07T04:23:40;9.50;99.90
11540;DHT22;5826;54.756;9.192;2023-05-07T04:26:05;9.50;99.90
11540;DHT22;5826;54.756;9.192;2023-05-07T04:28:31;9.50;99.90
11540;DHT22;5826;54.756;9.192;2023-05-07T04:30:57;9.50;99.90
11540;DHT22;5826;54.756;9.192;2023-05-07T04:33:22;9.60;99.90
11540;DHT22;5826;54.756;9.192;2023-05-07T04:35:48;9.50;99.90
11540;DHT22;5826;54.756;9.192;2023-05-07T04:38:14;9.50;99.90
11540;DHT22;5826;54.756;9.192;2023-05-07T04:40:40;9.60;99.90
11540;DHT22;5826;54.756;9.192;2023-05-07T04:43:06;9.50;99.90
11540;DHT22;5826;54.756;9.192;2023-05-07T04:45:32;9.50;99.90
11540;DHT22;5826;54.756;9.192;2023-05-07T04:47:58;9.60;99.90
11540;DHT22;5826;54.756;9.192;2023-05-07T04:50:23;9.60;99.90
11540;DHT22;5826;54.756;9.192;2023-05-07T04:52:49;9.60;99.90
11540;DHT22;5826;54.756;9.192;2023-05-07T04:55:16;9.60;99.90
11540;DHT22;5826;54.756;9.192;2023-05-07T04:57:41;9.60;99.90
11540;DHT22;5826;54.756;9.192;2023-05-07T05:00:07;9.60;99.90
11540;DHT22;5826;54.756;9.192;2023-05-07T05:02:34;9.60;99.90
11540;DHT22;5826;54.756;9.192;2023-05-07T05:05:00;9.70;99.90
11540;DHT22;5826;54.756;9.192;2023-05-07T05:07:27;9.70;99.90
11540;DHT22;5826;54.756;9.192;2023-05-07T05:09:53;9.70;99.90
11540;DHT22;5826;54.756;9.192;2023-05-07T05:12:19;9.70;99.90
11540;DHT22;5826;54.756;9.192;2023-05-07T05:14:44;9.70;99.90
11540;DHT22;5826;54.756;9.192;2023-05-07T05:17:10;9.70;99.90
11540;DHT22;5826;54.756;9.192;2023-05-07T05:19:35;9.80;99.90
11540;DHT22;5826;54.756;9.192;2023-05-07T05:22:01;9.70;99.90
11540;DHT22;5826;54.756;9.192;2023-05-07T05:24:29;9.80;99.90
11540;DHT22;5826;54.756;9.192;2023-05-07T05:26:55;9.80;99.90
11540;DHT22;5826;54.756;9.192;2023-05-07T05:29:20;9.80;99.90
11540;DHT22;5826;54.756;9.192;2023-05-07T05:31:46;9.80;99.90
11540;DHT22;5826;54.756;9.192;2023-05-07T05:34:11;9.80;99.90
11540;DHT22;5826;54.756;9.192;2023-05-07T05:36:37;9.80;99.90
11540;DHT22;5826;54.756;9.192;2023-05-07T05:39:02;9.90;99.90
11540;DHT22;5826;54.756;9.192;2023-05-07T05:41:28;9.90;99.90
11540;DHT22;5826;54.756;9.192;2023-05-07T05:43:54;9.90;99.90
11540;DHT22;5826;54.756;9.192;2023-05-07T05:46:19;9.90;99.90
11540;DHT22;5826;54.756;9.192;2023-05-07T05:48:45;9.90;99.90
11540;DHT22;5826;54.756;9.192;2023-05-07T05:51:10;9.90;99.90
11540;DHT22;5826;54.756;9.192;2023-05-07T05:53:36;10.00;99.90
11540;DHT22;5826;54.756;9.192;2023-05-07T05:56:02;10.10;99.90
11540;DHT22;5826;54.756;9.192;2023-05-07T05:58:27;10.10;99.90
11540;DHT22;5826;54.756;9.192;2023-05-07T06:00:53;10.10;99.90
11540;DHT22;5826;54.756;9.192;2023-05-07T06:03:19;10.20;99.90
11540;DHT22;5826;54.756;9.192;2023-05-07T06:05:44;10.20;99.90
11540;DHT22;5826;54.756;9.192;2023-05-07T06:08:10;10.30;99.90
11540;DHT22;5826;54.756;9.192;2023-05-07T06:10:38;10.40;99.90
11540;DHT22;5826;54.756;9.192;2023-05-07T06:13:04;10.40;99.90
11540;DHT22;5826;54.756;9.192;2023-05-07T06:15:29;10.40;99.90
11540;DHT22;5826;54.756;9.192;2023-05-07T06:17:55;10.40;99.90
11540;DHT22;5826;54.756;9.192;2023-05-07T06:20:22;10.50;99.90
11540;DHT22;5826;54.756;9.192;2023-05-07T06:22:48;10.50;99.90
11540;DHT22;5826;54.756;9.192;2023-05-07T06:25:14;11.30;99.90
11540;DHT22;5826;54.756;9.192;2023-05-07T06:27:39;10.60;99.90
11540;DHT22;5826;54.756;9.192;2023-05-07T06:30:05;10.60;99.90
11540;DHT22;5826;54.756;9.192;2023-05-07T06:32:31;10.60;99.90
11540;DHT22;5826;54.756;9.192;2023-05-07T06:34:57;10.60;99.90
11540;DHT22;5826;54.756;9.192;2023-05-07T06:37:22;10.60;99.90
11540;DHT22;5826;54.756;9.192;2023-05-07T06:39:48;10.70;99.90
11540;DHT22;5826;54.756;9.192;2023-05-07T06:42:13;10.70;99.90
11540;DHT22;5826;54.756;9.192;2023-05-07T06:44:39;10.70;99.90
11540;DHT22;5826;54.756;9.192;2023-05-07T06:47:04;10.80;99.90
11540;DHT22;5826;54.756;9.192;2023-05-07T06:49:30;10.90;99.90
11540;DHT22;5826;54.756;9.192;2023-05-07T06:51:57;10.90;99.90
11540;DHT22;5826;54.756;9.192;2023-05-07T06:54:22;10.90;99.90
11540;DHT22;5826;54.756;9.192;2023-05-07T06:56:48;10.90;99.90
11540;DHT22;5826;54.756;9.192;2023-05-07T06:59:14;10.90;99.90
11540;DHT22;5826;54.756;9.192;2023-05-07T07:01:39;10.90;99.90
11540;DHT22;5826;54.756;9.192;2023-05-07T07:04:05;10.90;99.90
11540;DHT22;5826;54.756;9.192;2023-05-07T07:06:31;11.10;99.90
11540;DHT22;5826;54.756;9.192;2023-05-07T07:08:57;11.00;99.90
11540;DHT22;5826;54.756;9.192;2023-05-07T07:11:23;11.10;99.90
11540;DHT22;5826;54.756;9.192;2023-05-07T07:13:48;11.10;99.90
11540;DHT22;5826;54.756;9.192;2023-05-07T07:16:14;11.10;99.90
11540;DHT22;5826;54.756;9.192;2023-05-07T07:18:40;11.20;99.90
11540;DHT22;5826;54.756;9.192;2023-05-07T07:21:05;11.10;99.90
11540;DHT22;5826;54.756;9.192;2023-05-07T07:23:31;11.20;99.90
11540;DHT22;5826;54.756;9.192;2023-05-07T07:25:57;11.20;99.90
11540;DHT22;5826;54.756;9.192;2023-05-07T07:28:22;11.20;99.90
11540;DHT22;5826;54.756;9.192;2023-05-07T07:30:48;11.20;99.90
11540;DHT22;5826;54.756;9.192;2023-05-07T07:33:13;11.20;99.90
11540;DHT22;5826;54.756;9.192;2023-05-07T07:35:39;11.30;99.90
11540;DHT22;5826;54.756;9.192;2023-05-07T07:38:05;11.30;99.90
11540;DHT22;5826;54.756;9.192;2023-05-07T07:40:31;11.30;99.90
11540;DHT22;5826;54.756;9.192;2023-05-07T07:42:57;11.30;99.90
11540;DHT22;5826;54.756;9.192;2023-05-07T07:45:22;11.30;99.90
11540;DHT22;5826;54.756;9.192;2023-05-07T07:47:48;11.30;99.90
11540;DHT22;5826;54.756;9.192;2023-05-07T07:50:14;11.30;99.90
11540;DHT22;5826;54.756;9.192;2023-05-07T07:52:39;11.40;99.90
11540;DHT22;5826;54.756;9.192;2023-05-07T07:55:06;11.40;99.90
11540;DHT22;5826;54.756;9.192;2023-05-07T07:57:32;11.40;99.90
11540;DHT22;5826;54.756;9.192;2023-05-07T07:59:58;11.40;99.90
11540;DHT22;5826;54.756;9.192;2023-05-07T08:02:23;11.40;99.90
11540;DHT22;5826;54.756;9.192;2023-05-07T08:04:49;11.40;99.90
11540;DHT22;5826;54.756;9.192;2023-05-07T08:07:14;11.50;99.90
11540;DHT22;5826;54.756;9.192;2023-05-07T08:09:40;11.50;99.90
11540;DHT22;5826;54.756;9.192;2023-05-07T08:12:06;11.50;99.90
11540;DHT22;5826;54.756;9.192;2023-05-07T08:14:32;11.50;99.90
11540;DHT22;5826;54.756;9.192;2023-05-07T08:16:58;11.60;99.90
11540;DHT22;5826;54.756;9.192;2023-05-07T08:19:23;11.60;99.90
11540;DHT22;5826;54.756;9.192;2023-05-07T08:21:49;11.80;99.90
11540;DHT22;5826;54.756;9.192;2023-05-07T08:24:15;11.80;99.90
11540;DHT22;5826;54.756;9.192;2023-05-07T08:26:41;12.00;99.90
11540;DHT22;5826;54.756;9.192;2023-05-07T08:29:07;12.10;99.90
11540;DHT22;5826;54.756;9.192;2023-05-07T08:31:33;12.20;99.90
11540;DHT22;5826;54.756;9.192;2023-05-07T08:33:59;12.20;99.90
11540;DHT22;5826;54.756;9.192;2023-05-07T08:36:25;12.20;99.90
11540;DHT22;5826;54.756;9.192;2023-05-07T08:38:51;12.20;99.90
11540;DHT22;5826;54.756;9.192;2023-05-07T08:41:17;12.30;99.90
11540;DHT22;5826;54.756;9.192;2023-05-07T08:43:48;12.30;99.90
11540;DHT22;5826;54.756;9.192;2023-05-07T08:46:17;12.40;99.90
11540;DHT22;5826;54.756;9.192;2023-05-07T08:48:44;12.40;99.90
11540;DHT22;5826;54.756;9.192;2023-05-07T08:51:12;12.50;99.90
11540;DHT22;5826;54.756;9.192;2023-05-07T08:53:41;12.50;99.90
11540;DHT22;5826;54.756;9.192;2023-05-07T08:56:08;12.50;99.90
11540;DHT22;5826;54.756;9.192;2023-05-07T08:58:34;12.60;99.90
11540;DHT22;5826;54.756;9.192;2023-05-07T09:01:03;12.60;99.90
11540;DHT22;5826;54.756;9.192;2023-05-07T09:03:32;12.60;99.90
11540;DHT22;5826;54.756;9.192;2023-05-07T09:05:57;12.60;99.90
11540;DHT22;5826;54.756;9.192;2023-05-07T09:08:27;12.70;99.90
11540;DHT22;5826;54.756;9.192;2023-05-07T09:10:53;12.80;99.90
11540;DHT22;5826;54.756;9.192;2023-05-07T09:13:19;12.90;99.90
11540;DHT22;5826;54.756;9.192;2023-05-07T09:15:44;13.00;99.90
11540;DHT22;5826;54.756;9.192;2023-05-07T09:18:10;13.10;99.90
11540;DHT22;5826;54.756;9.192;2023-05-07T09:20:39;13.20;99.90
11540;DHT22;5826;54.756;9.192;2023-05-07T09:23:06;13.30;99.90
11540;DHT22;5826;54.756;9.192;2023-05-07T09:25:34;13.30;99.90
11540;DHT22;5826;54.756;9.192;2023-05-07T09:28:00;13.50;99.90
11540;DHT22;5826;54.756;9.192;2023-05-07T09:30:30;13.50;99.90
11540;DHT22;5826;54.756;9.192;2023-05-07T09:32:58;13.70;99.90
11540;DHT22;5826;54.756;9.192;2023-05-07T09:35:24;13.80;99.90
11540;DHT22;5826;54.756;9.192;2023-05-07T09:37:53;13.90;99.90
11540;DHT22;5826;54.756;9.192;2023-05-07T09:42:48;14.10;99.90
11540;DHT22;5826;54.756;9.192;2023-05-07T09:45:15;14.20;99.90
11540;DHT22;5826;54.756;9.192;2023-05-07T09:47:43;14.30;99.90
11540;DHT22;5826;54.756;9.192;2023-05-07T09:50:12;14.40;99.90
11540;DHT22;5826;54.756;9.192;2023-05-07T09:52:40;14.50;99.90
11540;DHT22;5826;54.756;9.192;2023-05-07T09:55:07;14.60;99.90
11540;DHT22;5826;54.756;9.192;2023-05-07T09:57:34;14.70;99.90
11540;DHT22;5826;54.756;9.192;2023-05-07T10:00:02;14.70;99.90
11540;DHT22;5826;54.756;9.192;2023-05-07T10:02:30;14.80;99.90
11540;DHT22;5826;54.756;9.192;2023-05-07T10:04:57;15.00;99.90
11540;DHT22;5826;54.756;9.192;2023-05-07T10:07:25;15.10;99.90
11540;DHT22;5826;54.756;9.192;2023-05-07T10:09:52;15.30;99.90
11540;DHT22;5826;54.756;9.192;2023-05-07T10:12:18;15.40;99.90
11540;DHT22;5826;54.756;9.192;2023-05-07T10:14:45;15.30;99.90
11540;DHT22;5826;54.756;9.192;2023-05-07T10:17:12;15.30;99.90
11540;DHT22;5826;54.756;9.192;2023-05-07T10:19:38;15.30;99.90
11540;DHT22;5826;54.756;9.192;2023-05-07T10:22:05;15.40;99.90
11540;DHT22;5826;54.756;9.192;2023-05-07T10:24:35;15.20;99.90
11540;DHT22;5826;54.756;9.192;2023-05-07T10:27:05;15.20;99.90
11540;DHT22;5826;54.756;9.192;2023-05-07T10:29:57;15.10;99.90
11540;DHT22;5826;54.756;9.192;2023-05-07T10:32:39;15.20;99.90
11540;DHT22;5826;54.756;9.192;2023-05-07T10:35:11;15.20;99.90
11540;DHT22;5826;54.756;9.192;2023-05-07T10:37:39;15.30;99.90
11540;DHT22;5826;54.756;9.192;2023-05-07T10:40:06;15.40;99.90
11540;DHT22;5826;54.756;9.192;2023-05-07T10:42:32;15.50;99.90
11540;DHT22;5826;54.756;9.192;2023-05-07T10:44:57;15.60;99.90
11540;DHT22;5826;54.756;9.192;2023-05-07T10:47:36;15.70;99.90
11540;DHT22;5826;54.756;9.192;2023-05-07T10:50:22;15.70;99.90
11540;DHT22;5826;54.756;9.192;2023-05-07T10:55:46;15.60;99.90
11540;DHT22;5826;54.756;9.192;2023-05-07T11:00:47;15.40;99.90
11540;DHT22;5826;54.756;9.192;2023-05-07T11:03:13;15.30;99.90
11540;DHT22;5826;54.756;9.192;2023-05-07T11:05:41;15.30;99.90
11540;DHT22;5826;54.756;9.192;2023-05-07T11:08:07;15.30;99.90
11540;DHT22;5826;54.756;9.192;2023-05-07T11:10:53;15.40;99.90
11540;DHT22;5826;54.756;9.192;2023-05-07T11:13:43;15.40;99.90
11540;DHT22;5826;54.756;9.192;2023-05-07T11:16:23;15.40;99.90
11540;DHT22;5826;54.756;9.192;2023-05-07T11:18:51;15.40;99.90
11540;DHT22;5826;54.756;9.192;2023-05-07T11:21:33;15.40;99.90
11540;DHT22;5826;54.756;9.192;2023-05-07T11:24:00;15.50;99.90
11540;DHT22;5826;54.756;9.192;2023-05-07T11:26:29;15.70;99.90
11540;DHT22;5826;54.756;9.192;2023-05-07T11:28:55;15.90;99.90
11540;DHT22;5826;54.756;9.192;2023-05-07T11:31:26;16.10;99.90
11540;DHT22;5826;54.756;9.192;2023-05-07T11:33:52;16.20;99.90
11540;DHT22;5826;54.756;9.192;2023-05-07T11:36:21;16.40;99.90
11540;DHT22;5826;54.756;9.192;2023-05-07T11:38:46;16.50;99.90
11540;DHT22;5826;54.756;9.192;2023-05-07T11:41:12;16.80;99.90
11540;DHT22;5826;54.756;9.192;2023-05-07T11:43:38;17.10;99.90
11540;DHT22;5826;54.756;9.192;2023-05-07T11:46:09;17.30;99.90
11540;DHT22;5826;54.756;9.192;2023-05-07T11:48:35;17.40;99.90
11540;DHT22;5826;54.756;9.192;2023-05-07T11:51:05;17.40;99.90
11540;DHT22;5826;54.756;9.192;2023-05-07T11:53:42;17.50;99.90
11540;DHT22;5826;54.756;9.192;2023-05-07T11:56:12;17.60;99.90
11540;DHT22;5826;54.756;9.192;2023-05-07T11:58:40;17.60;99.90
11540;DHT22;5826;54.756;9.192;2023-05-07T12:01:10;17.60;99.90
11540;DHT22;5826;54.756;9.192;2023-05-07T12:03:37;17.60;99.90
11540;DHT22;5826;54.756;9.192;2023-05-07T12:06:05;17.60;99.90
11540;DHT22;5826;54.756;9.192;2023-05-07T12:08:32;17.70;99.90
11540;DHT22;5826;54.756;9.192;2023-05-07T12:10:58;17.90;99.90
11540;DHT22;5826;54.756;9.192;2023-05-07T12:13:25;18.10;99.90
11540;DHT22;5826;54.756;9.192;2023-05-07T12:15:55;18.20;99.90
11540;DHT22;5826;54.756;9.192;2023-05-07T12:18:22;18.40;99.90
11540;DHT22;5826;54.756;9.192;2023-05-07T12:20:48;18.50;99.90
11540;DHT22;5826;54.756;9.192;2023-05-07T12:23:14;18.50;99.90
11540;DHT22;5826;54.756;9.192;2023-05-07T12:25:42;18.70;99.90
11540;DHT22;5826;54.756;9.192;2023-05-07T12:28:14;18.70;99.90
11540;DHT22;5826;54.756;9.192;2023-05-07T12:30:45;18.70;99.90
11540;DHT22;5826;54.756;9.192;2023-05-07T12:33:11;18.70;99.90
11540;DHT22;5826;54.756;9.192;2023-05-07T12:35:41;18.70;99.90
11540;DHT22;5826;54.756;9.192;2023-05-07T12:38:13;18.60;99.90
11540;DHT22;5826;54.756;9.192;2023-05-07T12:40:49;18.60;99.90
11540;DHT22;5826;54.756;9.192;2023-05-07T12:43:21;18.70;99.90
11540;DHT22;5826;54.756;9.192;2023-05-07T12:45:48;18.80;99.90
11540;DHT22;5826;54.756;9.192;2023-05-07T12:48:14;18.70;99.90
11540;DHT22;5826;54.756;9.192;2023-05-07T12:50:40;18.90;99.90
11540;DHT22;5826;54.756;9.192;2023-05-07T12:53:06;19.00;99.90
11540;DHT22;5826;54.756;9.192;2023-05-07T12:55:43;19.00;99.90
11540;DHT22;5826;54.756;9.192;2023-05-07T12:58:17;19.00;99.90
11540;DHT22;5826;54.756;9.192;2023-05-07T13:00:44;19.20;99.90
11540;DHT22;5826;54.756;9.192;2023-05-07T13:03:10;19.40;99.90
11540;DHT22;5826;54.756;9.192;2023-05-07T13:05:36;19.60;99.90
11540;DHT22;5826;54.756;9.192;2023-05-07T13:08:02;19.80;99.90
11540;DHT22;5826;54.756;9.192;2023-05-07T13:10:27;20.10;99.90
11540;DHT22;5826;54.756;9.192;2023-05-07T13:12:54;20.30;99.90
11540;DHT22;5826;54.756;9.192;2023-05-07T13:15:20;20.20;99.90
11540;DHT22;5826;54.756;9.192;2023-05-07T13:17:46;20.00;99.90
11540;DHT22;5826;54.756;9.192;2023-05-07T13:20:12;20.10;99.90
11540;DHT22;5826;54.756;9.192;2023-05-07T13:22:38;20.40;99.90
11540;DHT22;5826;54.756;9.192;2023-05-07T13:25:05;20.60;99.90
11540;DHT22;5826;54.756;9.192;2023-05-07T13:27:31;20.80;99.90
11540;DHT22;5826;54.756;9.192;2023-05-07T13:29:57;21.00;99.90
11540;DHT22;5826;54.756;9.192;2023-05-07T13:32:22;21.30;99.90
11540;DHT22;5826;54.756;9.192;2023-05-07T13:34:48;21.70;99.90
11540;DHT22;5826;54.756;9.192;2023-05-07T13:37:13;22.00;99.90
11540;DHT22;5826;54.756;9.192;2023-05-07T13:39:39;22.20;99.90
11540;DHT22;5826;54.756;9.192;2023-05-07T13:42:04;22.40;99.90
11540;DHT22;5826;54.756;9.192;2023-05-07T13:44:30;22.60;99.90
11540;DHT22;5826;54.756;9.192;2023-05-07T13:46:55;22.80;99.90
11540;DHT22;5826;54.756;9.192;2023-05-07T13:49:21;22.90;99.90
11540;DHT22;5826;54.756;9.192;2023-05-07T13:51:46;23.00;99.90
11540;DHT22;5826;54.756;9.192;2023-05-07T13:54:12;23.00;99.90
11540;DHT22;5826;54.756;9.192;2023-05-07T13:56:37;23.20;99.90
11540;DHT22;5826;54.756;9.192;2023-05-07T13:59:03;23.30;99.90
11540;DHT22;5826;54.756;9.192;2023-05-07T14:01:28;23.40;99.90
11540;DHT22;5826;54.756;9.192;2023-05-07T14:03:55;23.60;99.90
11540;DHT22;5826;54.756;9.192;2023-05-07T14:06:21;23.80;99.90
11540;DHT22;5826;54.756;9.192;2023-05-07T14:08:47;23.90;99.90
11540;DHT22;5826;54.756;9.192;2023-05-07T14:11:12;24.10;99.90
11540;DHT22;5826;54.756;9.192;2023-05-07T14:13:38;24.20;99.90
11540;DHT22;5826;54.756;9.192;2023-05-07T14:16:04;24.10;99.90
11540;DHT22;5826;54.756;9.192;2023-05-07T14:18:30;24.10;99.90
11540;DHT22;5826;54.756;9.192;2023-05-07T14:20:56;24.20;99.90
11540;DHT22;5826;54.756;9.192;2023-05-07T14:23:21;24.20;99.90
11540;DHT22;5826;54.756;9.192;2023-05-07T14:25:54;24.30;99.90
11540;DHT22;5826;54.756;9.192;2023-05-07T14:28:21;24.30;99.90
11540;DHT22;5826;54.756;9.192;2023-05-07T14:30:48;24.20;99.90
11540;DHT22;5826;54.756;9.192;2023-05-07T14:33:13;24.20;99.90
11540;DHT22;5826;54.756;9.192;2023-05-07T14:35:39;24.30;99.90
11540;DHT22;5826;54.756;9.192;2023-05-07T14:38:04;24.30;99.90
11540;DHT22;5826;54.756;9.192;2023-05-07T14:40:30;24.50;99.90
11540;DHT22;5826;54.756;9.192;2023-05-07T14:42:55;24.50;99.90
11540;DHT22;5826;54.756;9.192;2023-05-07T14:45:22;24.50;99.90
11540;DHT22;5826;54.756;9.192;2023-05-07T14:47:48;24.40;99.90
11540;DHT22;5826;54.756;9.192;2023-05-07T14:50:14;24.20;99.90
11540;DHT22;5826;54.756;9.192;2023-05-07T14:52:39;23.90;99.90
11540;DHT22;5826;54.756;9.192;2023-05-07T14:55:05;23.60;99.90
11540;DHT22;5826;54.756;9.192;2023-05-07T14:57:31;23.60;99.90
11540;DHT22;5826;54.756;9.192;2023-05-07T15:00:00;23.90;99.90
11540;DHT22;5826;54.756;9.192;2023-05-07T15:02:26;24.10;99.90
11540;DHT22;5826;54.756;9.192;2023-05-07T15:04:51;24.30;99.90
11540;DHT22;5826;54.756;9.192;2023-05-07T15:07:17;24.60;99.90
11540;DHT22;5826;54.756;9.192;2023-05-07T15:09:43;24.80;99.90
11540;DHT22;5826;54.756;9.192;2023-05-07T15:12:09;24.90;99.90
11540;DHT22;5826;54.756;9.192;2023-05-07T15:14:39;25.10;99.90
11540;DHT22;5826;54.756;9.192;2023-05-07T15:17:08;24.70;99.90
11540;DHT22;5826;54.756;9.192;2023-05-07T15:19:34;24.30;99.90
11540;DHT22;5826;54.756;9.192;2023-05-07T15:22:06;23.90;99.90
11540;DHT22;5826;54.756;9.192;2023-05-07T15:24:32;23.60;99.90
11540;DHT22;5826;54.756;9.192;2023-05-07T15:26:58;23.30;99.90
11540;DHT22;5826;54.756;9.192;2023-05-07T15:29:28;22.90;99.90
11540;DHT22;5826;54.756;9.192;2023-05-07T15:31:57;22.50;99.90
11540;DHT22;5826;54.756;9.192;2023-05-07T15:34:23;22.20;99.90
11540;DHT22;5826;54.756;9.192;2023-05-07T15:36:49;22.10;99.90
11540;DHT22;5826;54.756;9.192;2023-05-07T15:39:15;21.90;99.90
11540;DHT22;5826;54.756;9.192;2023-05-07T15:41:41;22.10;99.90
11540;DHT22;5826;54.756;9.192;2023-05-07T15:44:07;22.40;99.90
11540;DHT22;5826;54.756;9.192;2023-05-07T15:46:33;22.60;99.90
11540;DHT22;5826;54.756;9.192;2023-05-07T15:49:02;22.90;99.90
11540;DHT22;5826;54.756;9.192;2023-05-07T15:51:29;22.90;99.90
11540;DHT22;5826;54.756;9.192;2023-05-07T15:53:56;22.90;99.90
11540;DHT22;5826;54.756;9.192;2023-05-07T15:56:21;22.80;99.90